sensor_id;sensor_type;location;lat;lon;timestamp;P1;durP1;ratioP1;P2;durP2;ratioP2
75516;SDS011;64097;52.548;13.406;2024-03-02T06:02:22;25.50;;;22.80;;
75516;SDS011;64097;52.548;13.406;2024-03-02T06:04:48;27.02;;;24.13;;
75516;SDS011;64097;52.548;13.406;2024-03-02T06:07:14;27.73;;;24.42;;
75516;SDS011;64097;52.548;13.406;2024-03-02T06:09:40;31.33;;;26.25;;
75516;SDS011;64097;52.548;13.406;2024-03-02T06:12:07;29.00;;;25.77;;
75516;SDS011;64097;52.548;13.406;2024-03-02T06:14:32;29.88;;;25.83;;
75516;SDS011;64097;52.548;13.406;2024-03-02T06:16:58;32.25;;;27.80;;
75516;SDS011;64097;52.548;13.406;2024-03-02T06:19:24;30.75;;;26.45;;
75516;SDS011;64097;52.548;13.406;2024-03-02T06:21:50;31.88;;;27.38;;
75516;SDS011;64097;52.548;13.406;2024-03-02T06:24:16;32.70;;;27.58;;
75516;SDS011;64097;52.548;13.406;2024-03-02T06:26:41;33.47;;;28.77;;
75516;SDS011;64097;52.548;13.406;2024-03-02T06:29:07;30.98;;;26.50;;
75516;SDS011;64097;52.548;13.406;2024-03-02T06:31:33;30.77;;;26.52;;
75516;SDS011;64097;52.548;13.406;2024-03-02T06:33:59;29.15;;;25.05;;
75516;SDS011;64097;52.548;13.406;2024-03-02T06:36:24;29.10;;;25.27;;
75516;SDS011;64097;52.548;13.406;2024-03-02T06:38:50;28.92;;;24.83;;
75516;SDS011;64097;52.548;13.406;2024-03-02T06:41:16;29.30;;;24.77;;
75516;SDS011;64097;52.548;13.406;2024-03-02T06:43:42;29.85;;;25.92;;
75516;SDS011;64097;52.548;13.406;2024-03-02T06:46:07;29.88;;;26.25;;
75516;SDS011;64097;52.548;13.406;2024-03-02T06:48:34;35.40;;;28.88;;
75516;SDS011;64097;52.548;13.406;2024-03-02T06:51:00;31.60;;;27.13;;
75516;SDS011;64097;52.548;13.406;2024-03-02T06:53:26;29.70;;;24.88;;
75516;SDS011;64097;52.548;13.406;2024-03-02T06:55:52;28.77;;;25.20;;
75516;SDS011;64097;52.548;13.406;2024-03-02T06:58:18;30.13;;;25.58;;
75516;SDS011;64097;52.548;13.406;2024-03-02T07:00:43;30.33;;;26.02;;
75516;SDS011;64097;52.548;13.406;2024-03-02T07:03:09;30.02;;;25.23;;
75516;SDS011;64097;52.548;13.406;2024-03-02T07:05:35;33.85;;;28.13;;
75516;SDS011;64097;52.548;13.406;2024-03-02T07:08:02;32.42;;;27.10;;
75516;SDS011;64097;52.548;13.406;2024-03-02T07:10:30;37.38;;;29.42;;
75516;SDS011;64097;52.548;13.406;2024-03-02T07:12:55;33.30;;;28.45;;
75516;SDS011;64097;52.548;13.406;2024-03-02T07:15:21;31.20;;;26.73;;
75516;SDS011;64097;52.548;13.406;2024-03-02T07:18:04;32.63;;;27.65;;
75516;SDS011;64097;52.548;13.406;2024-03-02T07:20:29;31.77;;;27.38;;
75516;SDS011;64097;52.548;13.406;2024-03-02T07:22:55;31.83;;;26.58;;
75516;SDS011;64097;52.548;13.406;2024-03-02T07:25:21;32.60;;;27.70;;
75516;SDS011;64097;52.548;13.406;2024-03-02T07:27:47;31.98;;;27.20;;
75516;SDS011;64097;52.548;13.406;2024-03-02T07:30:16;33.60;;;28.63;;
75516;SDS011;64097;52.548;13.406;2024-03-02T07:32:42;30.92;;;26.48;;
75516;SDS011;64097;52.548;13.406;2024-03-02T07:35:11;30.00;;;25.70;;
75516;SDS011;64097;52.548;13.406;2024-03-02T07:37:38;34.58;;;28.55;;
75516;SDS011;64097;52.548;13.406;2024-03-02T07:40:04;31.17;;;27.02;;
75516;SDS011;64097;52.548;13.406;2024-03-02T07:42:30;31.65;;;26.95;;
75516;SDS011;64097;52.548;13.406;2024-03-02T07:44:55;32.83;;;27.15;;
75516;SDS011;64097;52.548;13.406;2024-03-02T07:47:21;35.08;;;28.83;;
75516;SDS011;64097;52.548;13.406;2024-03-02T07:49:47;32.13;;;26.88;;
75516;SDS011;64097;52.548;13.406;2024-03-02T07:52:12;34.17;;;29.17;;
75516;SDS011;64097;52.548;13.406;2024-03-02T07:54:38;33.33;;;27.83;;
75516;SDS011;64097;52.548;13.406;2024-03-02T07:57:04;33.85;;;28.40;;
75516;SDS011;64097;52.548;13.406;2024-03-02T07:59:29;34.90;;;30.02;;
75516;SDS011;64097;52.548;13.406;2024-03-02T08:01:55;34.63;;;29.00;;
75516;SDS011;64097;52.548;13.406;2024-03-02T08:04:21;37.60;;;31.35;;
75516;SDS011;64097;52.548;13.406;2024-03-02T08:06:46;38.47;;;31.83;;
75516;SDS011;64097;52.548;13.406;2024-03-02T08:09:12;40.70;;;32.88;;
75516;SDS011;64097;52.548;13.406;2024-03-02T08:11:38;37.17;;;31.02;;
75516;SDS011;64097;52.548;13.406;2024-03-02T08:14:03;37.78;;;31.13;;
75516;SDS011;64097;52.548;13.406;2024-03-02T08:16:29;34.58;;;29.38;;
75516;SDS011;64097;52.548;13.406;2024-03-02T08:18:55;32.80;;;27.27;;
75516;SDS011;64097;52.548;13.406;2024-03-02T08:21:23;32.15;;;28.05;;
75516;SDS011;64097;52.548;13.406;2024-03-02T08:23:49;36.17;;;29.52;;
75516;SDS011;64097;52.548;13.406;2024-03-02T08:26:15;34.63;;;28.70;;
75516;SDS011;64097;52.548;13.406;2024-03-02T08:28:40;36.00;;;29.98;;
75516;SDS011;64097;52.548;13.406;2024-03-02T08:31:06;34.08;;;28.63;;
75516;SDS011;64097;52.548;13.406;2024-03-02T08:33:32;31.20;;;27.00;;
75516;SDS011;64097;52.548;13.406;2024-03-02T08:35:58;31.85;;;27.83;;
75516;SDS011;64097;52.548;13.406;2024-03-02T08:38:24;32.95;;;27.92;;
75516;SDS011;64097;52.548;13.406;2024-03-02T08:40:50;35.10;;;29.55;;
75516;SDS011;64097;52.548;13.406;2024-03-02T08:43:16;33.45;;;27.90;;
75516;SDS011;64097;52.548;13.406;2024-03-02T08:45:42;37.28;;;31.52;;
75516;SDS011;64097;52.548;13.406;2024-03-02T08:48:08;35.63;;;30.02;;
75516;SDS011;64097;52.548;13.406;2024-03-02T08:50:34;33.33;;;27.52;;
75516;SDS011;64097;52.548;13.406;2024-03-02T08:53:00;37.03;;;29.67;;
75516;SDS011;64097;52.548;13.406;2024-03-02T08:55:26;34.78;;;29.25;;
75516;SDS011;64097;52.548;13.406;2024-03-02T08:57:51;33.38;;;27.88;;
75516;SDS011;64097;52.548;13.406;2024-03-02T09:00:18;30.65;;;26.65;;
75516;SDS011;64097;52.548;13.406;2024-03-02T09:02:45;31.30;;;26.42;;
75516;SDS011;64097;52.548;13.406;2024-03-02T09:05:11;30.02;;;25.15;;
75516;SDS011;64097;52.548;13.406;2024-03-02T09:07:37;27.23;;;24.27;;
75516;SDS011;64097;52.548;13.406;2024-03-02T09:10:05;30.00;;;26.13;;
75516;SDS011;64097;52.548;13.406;2024-03-02T09:12:32;29.42;;;25.45;;
75516;SDS011;64097;52.548;13.406;2024-03-02T09:14:59;28.75;;;24.77;;
75516;SDS011;64097;52.548;13.406;2024-03-02T09:17:25;30.10;;;24.42;;
75516;SDS011;64097;52.548;13.406;2024-03-02T09:19:51;27.92;;;24.25;;
75516;SDS011;64097;52.548;13.406;2024-03-02T09:22:20;27.92;;;24.13;;
75516;SDS011;64097;52.548;13.406;2024-03-02T09:24:46;31.13;;;26.25;;
75516;SDS011;64097;52.548;13.406;2024-03-02T09:27:12;30.75;;;26.10;;
75516;SDS011;64097;52.548;13.406;2024-03-02T09:29:37;29.60;;;26.30;;
75516;SDS011;64097;52.548;13.406;2024-03-02T09:32:04;31.65;;;26.83;;
75516;SDS011;64097;52.548;13.406;2024-03-02T09:34:30;33.20;;;27.25;;
75516;SDS011;64097;52.548;13.406;2024-03-02T09:36:56;31.60;;;27.40;;
75516;SDS011;64097;52.548;13.406;2024-03-02T09:39:22;30.25;;;25.88;;
75516;SDS011;64097;52.548;13.406;2024-03-02T09:41:50;29.25;;;25.13;;
75516;SDS011;64097;52.548;13.406;2024-03-02T09:44:16;30.98;;;26.08;;
75516;SDS011;64097;52.548;13.406;2024-03-02T09:46:42;29.65;;;26.38;;
75516;SDS011;64097;52.548;13.406;2024-03-02T09:49:09;32.60;;;27.42;;
75516;SDS011;64097;52.548;13.406;2024-03-02T09:51:36;31.90;;;27.98;;
75516;SDS011;64097;52.548;13.406;2024-03-02T09:54:02;32.88;;;28.45;;
75516;SDS011;64097;52.548;13.406;2024-03-02T09:56:29;31.67;;;26.70;;
75516;SDS011;64097;52.548;13.406;2024-03-02T09:58:54;30.65;;;26.30;;
75516;SDS011;64097;52.548;13.406;2024-03-02T10:01:20;32.75;;;27.88;;
75516;SDS011;64097;52.548;13.406;2024-03-02T10:03:46;31.13;;;26.98;;
75516;SDS011;64097;52.548;13.406;2024-03-02T10:08:45;29.67;;;25.92;;
75516;SDS011;64097;52.548;13.406;2024-03-02T10:11:15;28.55;;;24.33;;
75516;SDS011;64097;52.548;13.406;2024-03-02T10:13:50;29.70;;;24.67;;
75516;SDS011;64097;52.548;13.406;2024-03-02T10:16:16;28.02;;;24.00;;
75516;SDS011;64097;52.548;13.406;2024-03-02T10:18:42;26.92;;;23.00;;
75516;SDS011;64097;52.548;13.406;2024-03-02T10:21:14;26.88;;;22.48;;
75516;SDS011;64097;52.548;13.406;2024-03-02T10:23:40;24.50;;;21.33;;
75516;SDS011;64097;52.548;13.406;2024-03-02T10:26:16;24.05;;;21.50;;
75516;SDS011;64097;52.548;13.406;2024-03-02T10:28:46;25.80;;;22.30;;
75516;SDS011;64097;52.548;13.406;2024-03-02T10:31:24;24.40;;;20.73;;
75516;SDS011;64097;52.548;13.406;2024-03-02T10:33:53;25.98;;;22.17;;
75516;SDS011;64097;52.548;13.406;2024-03-02T10:36:20;29.77;;;24.67;;
75516;SDS011;64097;52.548;13.406;2024-03-02T10:38:46;25.27;;;22.00;;
75516;SDS011;64097;52.548;13.406;2024-03-02T10:41:19;28.15;;;22.92;;
75516;SDS011;64097;52.548;13.406;2024-03-02T10:43:54;25.05;;;21.33;;
75516;SDS011;64097;52.548;13.406;2024-03-02T10:46:31;22.38;;;19.80;;
75516;SDS011;64097;52.548;13.406;2024-03-02T10:48:59;23.75;;;20.48;;
75516;SDS011;64097;52.548;13.406;2024-03-02T10:51:29;23.33;;;19.52;;
75516;SDS011;64097;52.548;13.406;2024-03-02T10:54:01;25.02;;;20.48;;
75516;SDS011;64097;52.548;13.406;2024-03-02T11:01:53;21.05;;;18.60;;
75516;SDS011;64097;52.548;13.406;2024-03-02T11:04:23;20.83;;;17.88;;
75516;SDS011;64097;52.548;13.406;2024-03-02T11:06:50;19.60;;;17.50;;
75516;SDS011;64097;52.548;13.406;2024-03-02T11:09:20;19.83;;;17.63;;
75516;SDS011;64097;52.548;13.406;2024-03-02T11:11:56;20.80;;;17.13;;
75516;SDS011;64097;52.548;13.406;2024-03-02T11:14:29;18.75;;;16.75;;
75516;SDS011;64097;52.548;13.406;2024-03-02T11:16:58;19.00;;;16.17;;
75516;SDS011;64097;52.548;13.406;2024-03-02T11:19:25;19.35;;;17.25;;
75516;SDS011;64097;52.548;13.406;2024-03-02T11:21:51;18.65;;;16.67;;
75516;SDS011;64097;52.548;13.406;2024-03-02T11:26:49;17.70;;;15.73;;
75516;SDS011;64097;52.548;13.406;2024-03-02T11:32:04;17.98;;;15.40;;
75516;SDS011;64097;52.548;13.406;2024-03-02T11:37:01;18.75;;;15.40;;
75516;SDS011;64097;52.548;13.406;2024-03-02T11:39:28;17.75;;;14.77;;
75516;SDS011;64097;52.548;13.406;2024-03-02T11:41:55;17.77;;;15.27;;
75516;SDS011;64097;52.548;13.406;2024-03-02T11:44:27;18.17;;;16.17;;
75516;SDS011;64097;52.548;13.406;2024-03-02T11:46:59;18.25;;;16.25;;
75516;SDS011;64097;52.548;13.406;2024-03-02T11:49:42;17.33;;;15.27;;
75516;SDS011;64097;52.548;13.406;2024-03-02T11:52:15;17.33;;;15.43;;
75516;SDS011;64097;52.548;13.406;2024-03-02T11:54:43;18.33;;;16.33;;
75516;SDS011;64097;52.548;13.406;2024-03-02T11:57:22;20.38;;;17.95;;
75516;SDS011;64097;52.548;13.406;2024-03-02T11:59:48;17.55;;;15.40;;
75516;SDS011;64097;52.548;13.406;2024-03-02T12:02:21;18.35;;;15.75;;
75516;SDS011;64097;52.548;13.406;2024-03-02T12:04:47;16.63;;;14.77;;
75516;SDS011;64097;52.548;13.406;2024-03-02T12:07:20;18.40;;;16.20;;
75516;SDS011;64097;52.548;13.406;2024-03-02T12:09:47;17.30;;;15.48;;
75516;SDS011;64097;52.548;13.406;2024-03-02T12:12:13;17.33;;;15.20;;
75516;SDS011;64097;52.548;13.406;2024-03-02T12:14:52;16.65;;;14.95;;
75516;SDS011;64097;52.548;13.406;2024-03-02T12:17:20;16.63;;;14.52;;
75516;SDS011;64097;52.548;13.406;2024-03-02T12:19:46;17.30;;;14.15;;
75516;SDS011;64097;52.548;13.406;2024-03-02T12:22:12;15.40;;;13.60;;
75516;SDS011;64097;52.548;13.406;2024-03-02T12:24:38;15.38;;;13.77;;
75516;SDS011;64097;52.548;13.406;2024-03-02T12:27:04;16.90;;;14.95;;
75516;SDS011;64097;52.548;13.406;2024-03-02T12:29:32;16.60;;;14.60;;
75516;SDS011;64097;52.548;13.406;2024-03-02T12:31:59;16.55;;;14.82;;
75516;SDS011;64097;52.548;13.406;2024-03-02T12:34:27;16.30;;;14.60;;
75516;SDS011;64097;52.548;13.406;2024-03-02T12:36:53;16.52;;;14.52;;
75516;SDS011;64097;52.548;13.406;2024-03-02T12:39:19;17.52;;;14.07;;
75516;SDS011;64097;52.548;13.406;2024-03-02T12:41:49;15.00;;;13.38;;
75516;SDS011;64097;52.548;13.406;2024-03-02T12:44:20;15.93;;;14.20;;
75516;SDS011;64097;52.548;13.406;2024-03-02T12:46:46;17.52;;;14.77;;
75516;SDS011;64097;52.548;13.406;2024-03-02T12:49:12;16.20;;;14.48;;
75516;SDS011;64097;52.548;13.406;2024-03-02T12:51:41;16.60;;;14.63;;
75516;SDS011;64097;52.548;13.406;2024-03-02T12:54:10;16.23;;;14.48;;
75516;SDS011;64097;52.548;13.406;2024-03-02T12:56:40;15.65;;;13.85;;
75516;SDS011;64097;52.548;13.406;2024-03-02T12:59:18;15.95;;;14.32;;
75516;SDS011;64097;52.548;13.406;2024-03-02T13:01:54;16.73;;;14.93;;
75516;SDS011;64097;52.548;13.406;2024-03-02T13:04:25;16.27;;;14.57;;
75516;SDS011;64097;52.548;13.406;2024-03-02T13:06:53;16.25;;;14.55;;
75516;SDS011;64097;52.548;13.406;2024-03-02T13:09:20;16.17;;;14.43;;
75516;SDS011;64097;52.548;13.406;2024-03-02T13:11:46;15.82;;;14.18;;
75516;SDS011;64097;52.548;13.406;2024-03-02T13:14:12;14.98;;;13.38;;
75516;SDS011;64097;52.548;13.406;2024-03-02T13:16:39;14.00;;;12.57;;
75516;SDS011;64097;52.548;13.406;2024-03-02T13:19:08;16.05;;;14.15;;
75516;SDS011;64097;52.548;13.406;2024-03-02T13:21:35;16.98;;;14.00;;
75516;SDS011;64097;52.548;13.406;2024-03-02T13:24:00;15.80;;;13.63;;
75516;SDS011;64097;52.548;13.406;2024-03-02T13:26:27;15.13;;;13.52;;
75516;SDS011;64097;52.548;13.406;2024-03-02T13:28:52;16.17;;;14.27;;
75516;SDS011;64097;52.548;13.406;2024-03-02T13:31:18;15.52;;;13.93;;
75516;SDS011;64097;52.548;13.406;2024-03-02T13:33:44;15.35;;;13.10;;
75516;SDS011;64097;52.548;13.406;2024-03-02T13:36:10;14.40;;;12.90;;
75516;SDS011;64097;52.548;13.406;2024-03-02T13:38:35;14.10;;;12.60;;
75516;SDS011;64097;52.548;13.406;2024-03-02T13:41:01;14.30;;;12.77;;
75516;SDS011;64097;52.548;13.406;2024-03-02T13:43:27;15.55;;;13.30;;
75516;SDS011;64097;52.548;13.406;2024-03-02T13:45:53;14.05;;;12.27;;
75516;SDS011;64097;52.548;13.406;2024-03-02T13:48:19;14.98;;;12.95;;
75516;SDS011;64097;52.548;13.406;2024-03-02T13:50:45;13.88;;;12.02;;
75516;SDS011;64097;52.548;13.406;2024-03-02T13:53:11;12.82;;;11.25;;
75516;SDS011;64097;52.548;13.406;2024-03-02T13:55:37;12.38;;;11.07;;
75516;SDS011;64097;52.548;13.406;2024-03-02T13:58:03;15.30;;;12.63;;
